Time;durP1;ratioP1;P1;durP2;ratioP2;P2;SDS_P1;SDS_P2;PMS_P1;PMS_P2;Temp;Humidity;BMP_temperature;BMP_pressure;BME280_temperature;BME280_humidity;BME280_pressure;Samples;Min_cycle;Max_cycle;Signal;HPM_P1;HPM_P2
2023/01/10 00:01:25;;;;;;;0.15;0.15;;;;;;;6.86;100.00;100935.56;10414113;28;20515;-83
2023/01/10 00:06:26;;;;;;;0.35;0.35;;;;;;;6.73;100.00;100950.44;10411803;28;20037;-82
2023/01/10 00:16:48;;;;;;;0.10;0.10;;;;;;;6.69;100.00;100968.16;10421172;28;20072;-83
2023/01/10 00:21:50;;;;;;;0.15;0.15;;;;;;;6.70;100.00;100986.16;10415272;28;20493;-83
2023/01/10 00:26:51;;;;;;;0.50;0.20;;;;;;;6.71;100.00;100994.72;10411624;28;20045;-82
2023/01/10 00:31:53;;;;;;;3.95;2.75;;;;;;;6.89;100.00;101004.84;10411062;28;20091;-83
2023/01/10 00:36:55;;;;;;;0.55;0.55;;;;;;;6.87;100.00;101015.06;10426171;28;20053;-83
2023/01/10 00:47:17;;;;;;;0.13;0.13;;;;;;;6.86;100.00;101030.31;10412350;28;20046;-82
2023/01/10 00:52:19;;;;;;;0.00;0.00;;;;;;;6.98;100.00;101044.53;10396409;28;20103;-83
2023/01/10 00:57:20;;;;;;;1.75;0.40;;;;;;;7.20;100.00;101053.13;10411991;28;20103;-83
2023/01/10 01:02:22;;;;;;;0.00;0.00;;;;;;;7.24;100.00;101055.03;10413126;28;20438;-83
2023/01/10 01:07:24;;;;;;;0.20;0.20;;;;;;;7.30;100.00;101062.97;10413624;28;20053;-83
2023/01/10 01:12:25;;;;;;;0.00;0.00;;;;;;;7.15;100.00;101072.56;10395664;28;20500;-82
2023/01/10 01:17:27;;;;;;;0.32;0.32;;;;;;;7.40;100.00;101083.88;10431113;28;20448;-84
2023/01/10 01:22:28;;;;;;;0.93;0.65;;;;;;;7.24;100.00;101103.72;10433486;28;20128;-83
2023/01/10 01:27:30;;;;;;;0.90;0.52;;;;;;;7.31;100.00;101109.97;10425250;28;20132;-83
2023/01/10 01:32:33;;;;;;;0.10;0.10;;;;;;;7.36;100.00;101117.84;10417873;28;20033;-84
2023/01/10 01:37:38;;;;;;;0.00;0.00;;;;;;;7.41;100.00;101130.06;10431359;28;20059;-84
2023/01/10 01:42:40;;;;;;;0.00;0.00;;;;;;;7.14;100.00;101122.97;10417210;28;20068;-83
2023/01/10 01:48:09;;;;;;;0.10;0.10;;;;;;;7.24;100.00;101125.91;10414332;28;20045;-83
2023/01/10 01:53:48;;;;;;;0.75;0.75;;;;;;;7.17;100.00;101137.59;10445540;28;20041;-83
2023/01/10 01:59:01;;;;;;;0.50;0.25;;;;;;;7.11;100.00;101153.56;10401354;28;20057;-83
2023/01/10 02:04:12;;;;;;;0.00;0.00;;;;;;;7.15;100.00;101149.44;10430828;28;20398;-83
2023/01/10 02:09:52;;;;;;;0.10;0.10;;;;;;;7.02;100.00;101158.25;10431464;28;20049;-83
2023/01/10 02:14:54;;;;;;;0.05;0.05;;;;;;;6.92;100.00;101167.22;10436775;28;20056;-83
2023/01/10 02:20:07;;;;;;;0.10;0.10;;;;;;;6.82;100.00;101159.94;10414942;28;20096;-83
2023/01/10 02:25:29;;;;;;;0.10;0.10;;;;;;;6.62;100.00;101165.03;10416580;28;20073;-83
2023/01/10 02:30:53;;;;;;;0.00;0.00;;;;;;;6.52;100.00;101170.50;10418356;28;20136;-84
2023/01/10 02:36:05;;;;;;;0.15;0.05;;;;;;;6.76;100.00;101172.47;10425147;28;20129;-84
2023/01/10 02:41:27;;;;;;;0.30;0.25;;;;;;;6.66;100.00;101183.97;10415231;28;20045;-84
2023/01/10 02:46:31;;;;;;;0.00;0.00;;;;;;;6.71;100.00;101181.63;10415203;28;20045;-84
2023/01/10 02:51:33;;;;;;;1.02;0.30;;;;;;;6.64;100.00;101183.00;10397510;28;20099;-83
2023/01/10 02:56:59;;;;;;;0.25;0.10;;;;;;;6.73;100.00;101186.00;10415734;28;20041;-83
2023/01/10 03:02:16;;;;;;;0.00;0.00;;;;;;;6.92;100.00;101187.72;10434101;28;20045;-82
2023/01/10 03:07:36;;;;;;;6.65;0.73;;;;;;;7.00;100.00;101195.75;10435595;28;20144;-83
2023/01/10 03:12:47;;;;;;;1.45;0.65;;;;;;;7.17;100.00;101204.22;10432302;28;20155;-83
2023/01/10 03:17:54;;;;;;;0.22;0.22;;;;;;;7.39;100.00;101215.41;10420595;28;20574;-83
2023/01/10 03:22:56;;;;;;;0.08;0.08;;;;;;;7.32;100.00;101228.75;10432558;28;20041;-82
2023/01/10 03:28:11;;;;;;;0.00;0.00;;;;;;;7.39;100.00;101210.28;10419950;28;20057;-83
2023/01/10 03:33:16;;;;;;;2.42;0.45;;;;;;;7.32;100.00;101218.50;10412472;28;20604;-82
2023/01/10 03:38:49;;;;;;;0.20;0.20;;;;;;;7.42;100.00;101220.66;10409012;28;20410;-82
2023/01/10 03:49:28;;;;;;;0.43;0.10;;;;;;;7.28;100.00;101241.44;10416832;28;20164;-83
2023/01/10 03:54:30;;;;;;;0.20;0.20;;;;;;;7.30;100.00;101249.19;10395864;28;20041;-83
2023/01/10 03:59:33;;;;;;;2.63;0.88;;;;;;;7.28;100.00;101259.38;10439017;28;20053;-83
2023/01/10 04:04:34;;;;;;;2.95;0.68;;;;;;;7.24;100.00;101260.06;10426843;28;20491;-84
2023/01/10 04:09:36;;;;;;;0.57;0.55;;;;;;;7.42;100.00;101261.66;10426804;28;20504;-84
2023/01/10 04:14:37;;;;;;;0.22;0.22;;;;;;;7.38;100.00;101262.34;10407810;28;20563;-85
2023/01/10 04:19:39;;;;;;;0.05;0.05;;;;;;;7.28;100.00;101274.75;10438812;28;20057;-83
2023/01/10 04:24:43;;;;;;;0.00;0.00;;;;;;;7.27;100.00;101273.00;10415033;28;20045;-84
2023/01/10 04:29:45;;;;;;;4.10;1.08;;;;;;;7.11;100.00;101280.81;10479749;28;20099;-82
2023/01/10 04:34:46;;;;;;;0.20;0.20;;;;;;;7.03;100.00;101277.88;10445403;28;20321;-84
2023/01/10 04:39:48;;;;;;;0.20;0.10;;;;;;;6.85;100.00;101285.56;10439978;28;20045;-84
2023/01/10 04:44:50;;;;;;;0.10;0.10;;;;;;;6.96;100.00;101292.06;10448616;28;20045;-84
2023/01/10 04:49:52;;;;;;;0.20;0.20;;;;;;;6.82;100.00;101287.97;10435906;28;20497;-84
2023/01/10 04:54:54;;;;;;;0.38;0.20;;;;;;;6.87;100.00;101306.13;10396436;28;20050;-84
2023/01/10 04:59:55;;;;;;;0.20;0.20;;;;;;;6.83;100.00;101317.91;10421194;28;20098;-84
2023/01/10 05:04:57;;;;;;;0.52;0.22;;;;;;;6.51;100.00;101330.06;10429170;28;20041;-83
2023/01/10 05:09:58;;;;;;;4.47;0.95;;;;;;;6.43;100.00;101339.91;10436040;28;20529;-85
2023/01/10 05:15:00;;;;;;;0.98;0.70;;;;;;;6.64;100.00;101344.31;10423129;28;20081;-83
2023/01/10 05:20:02;;;;;;;11.55;0.30;;;;;;;6.58;100.00;101355.16;10393035;28;20099;-83
2023/01/10 05:25:04;;;;;;;1.05;0.75;;;;;;;6.49;100.00;101360.66;10409717;28;20051;-84
2023/01/10 05:30:11;;;;;;;0.32;0.30;;;;;;;6.64;100.00;101365.69;10409529;28;20045;-84
2023/01/10 05:35:13;;;;;;;0.52;0.28;;;;;;;6.67;100.00;101368.38;10415779;28;20056;-84
2023/01/10 05:40:14;;;;;;;1.55;0.75;;;;;;;6.67;100.00;101382.88;10411284;28;20120;-83
2023/01/10 05:45:16;;;;;;;0.20;0.20;;;;;;;6.54;100.00;101383.94;10400151;28;20103;-82
2023/01/10 05:50:18;;;;;;;0.43;0.43;;;;;;;6.53;100.00;101381.31;10426550;28;20055;-83
2023/01/10 05:55:19;;;;;;;0.00;0.00;;;;;;;6.41;100.00;101382.44;10417697;28;20053;-83
2023/01/10 06:00:21;;;;;;;0.43;0.20;;;;;;;6.46;100.00;101392.91;10410644;28;20041;-83
2023/01/10 06:05:25;;;;;;;1.70;0.88;;;;;;;6.40;100.00;101407.97;10416627;28;20041;-83
2023/01/10 06:10:27;;;;;;;0.30;0.20;;;;;;;6.74;100.00;101414.81;10414177;28;20041;-84
2023/01/10 06:15:28;;;;;;;2.22;0.28;;;;;;;6.73;100.00;101425.84;10413210;28;20489;-84
2023/01/10 06:20:31;;;;;;;0.10;0.10;;;;;;;6.87;100.00;101419.72;10431272;28;20073;-84
2023/01/10 06:25:40;;;;;;;1.30;0.73;;;;;;;6.59;100.00;101423.44;10415984;28;20041;-83
2023/01/10 06:30:42;;;;;;;0.10;0.08;;;;;;;6.74;100.00;101437.84;10398308;28;20393;-84
2023/01/10 06:35:45;;;;;;;3.72;0.28;;;;;;;6.83;100.00;101435.72;10399332;28;20160;-83
2023/01/10 06:40:47;;;;;;;0.15;0.15;;;;;;;7.05;100.00;101459.84;10415311;28;20128;-83
2023/01/10 06:45:49;;;;;;;0.50;0.50;;;;;;;6.97;100.00;101464.59;10442703;28;20113;-82
2023/01/10 06:50:50;;;;;;;0.45;0.45;;;;;;;6.93;100.00;101463.56;10428792;28;20444;-83
2023/01/10 06:55:54;;;;;;;0.60;0.38;;;;;;;6.97;100.00;101478.28;10414960;28;20041;-84
2023/01/10 07:00:55;;;;;;;5.25;0.70;;;;;;;6.99;100.00;101492.03;10416045;28;20049;-84
2023/01/10 07:06:01;;;;;;;0.80;0.28;;;;;;;7.05;100.00;101491.47;10398785;28;20056;-83
2023/01/10 07:11:03;;;;;;;2.08;0.38;;;;;;;7.15;100.00;101503.06;10412651;28;20048;-84
2023/01/10 07:16:07;;;;;;;0.47;0.13;;;;;;;6.79;100.00;101502.97;10414761;28;20152;-84
2023/01/10 07:21:11;;;;;;;2.95;1.42;;;;;;;7.18;100.00;101503.22;10398235;28;20053;-85
2023/01/10 07:26:16;;;;;;;0.20;0.20;;;;;;;7.03;100.00;101510.16;10409982;28;20064;-81
2023/01/10 07:31:19;;;;;;;8.38;2.15;;;;;;;7.09;100.00;101513.00;10420564;28;20049;-81
2023/01/10 07:36:21;;;;;;;0.20;0.20;;;;;;;6.93;100.00;101525.06;10423652;28;20072;-81
2023/01/10 07:41:23;;;;;;;0.88;0.47;;;;;;;7.12;100.00;101523.41;10414511;28;20459;-80
2023/01/10 07:46:25;;;;;;;1.55;0.65;;;;;;;7.17;100.00;101541.56;10414364;28;20116;-88
2023/01/10 07:51:29;;;;;;;0.00;0.00;;;;;;;7.19;100.00;101534.84;10414015;28;20124;-80
2023/01/10 07:56:30;;;;;;;0.85;0.63;;;;;;;6.92;100.00;101546.34;10422582;28;20045;-80
2023/01/10 08:01:32;;;;;;;7.70;1.10;;;;;;;6.98;100.00;101540.66;10412703;28;20527;-81
2023/01/10 08:06:34;;;;;;;0.35;0.32;;;;;;;7.04;100.00;101555.44;10413053;28;20046;-80
2023/01/10 08:11:36;;;;;;;0.52;0.45;;;;;;;6.92;100.00;101571.97;10400758;28;20056;-80
2023/01/10 08:16:37;;;;;;;0.00;0.00;;;;;;;6.93;100.00;101578.84;10425931;28;20033;-80
2023/01/10 08:21:39;;;;;;;0.45;0.43;;;;;;;7.23;100.00;101583.78;10411928;28;20053;-80
2023/01/10 08:26:40;;;;;;;0.00;0.00;;;;;;;6.95;100.00;101586.59;10411688;28;20045;-80
2023/01/10 08:31:42;;;;;;;0.22;0.22;;;;;;;7.01;100.00;101580.91;10412278;28;20103;-80
2023/01/10 08:36:45;;;;;;;0.32;0.28;;;;;;;7.02;100.00;101591.25;10411255;28;20142;-80
2023/01/10 08:41:47;;;;;;;0.73;0.73;;;;;;;7.05;100.00;101588.84;10433043;28;20045;-81
2023/01/10 08:46:49;;;;;;;0.38;0.38;;;;;;;6.93;100.00;101578.84;10411346;28;20083;-80
2023/01/10 08:51:51;;;;;;;1.25;0.75;;;;;;;7.18;100.00;101585.25;10433735;28;20053;-80
2023/01/10 08:56:52;;;;;;;0.43;0.20;;;;;;;7.24;100.00;101587.19;10394650;28;20046;-80
2023/01/10 09:01:57;;;;;;;3.35;0.10;;;;;;;7.07;100.00;101594.94;10423208;28;20481;-80
2023/01/10 09:06:59;;;;;;;1.30;0.90;;;;;;;6.96;100.00;101588.38;10403535;28;20125;-80
2023/01/10 09:12:00;;;;;;;0.38;0.30;;;;;;;7.26;100.00;101586.47;10408242;28;20104;-80
2023/01/10 09:17:02;;;;;;;0.38;0.05;;;;;;;7.06;100.00;101594.84;10412384;28;20041;-80
2023/01/10 09:22:03;;;;;;;3.20;0.63;;;;;;;7.53;100.00;101596.38;10407964;28;20087;-80
2023/01/10 09:27:05;;;;;;;0.10;0.00;;;;;;;7.38;100.00;101593.91;10409660;28;20111;-87
2023/01/10 09:32:08;;;;;;;1.02;0.85;;;;;;;7.50;100.00;101588.50;10404513;28;20091;-87
2023/01/10 09:37:10;;;;;;;0.22;0.20;;;;;;;7.61;100.00;101604.41;10398553;28;20047;-86
2023/01/10 09:42:33;;;;;;;1.13;0.25;;;;;;;7.64;100.00;101607.16;10411752;28;20050;-86
2023/01/10 09:48:06;;;;;;;0.15;0.15;;;;;;;7.63;100.00;101608.81;10399831;28;20096;-86
2023/01/10 09:53:19;;;;;;;0.93;0.52;;;;;;;7.58;100.00;101615.41;10405487;28;20069;-85
2023/01/10 09:58:28;;;;;;;1.17;0.65;;;;;;;7.97;100.00;101606.13;10420870;28;20045;-86
2023/01/10 10:04:09;;;;;;;0.20;0.20;;;;;;;8.15;100.00;101617.31;10437777;28;20176;-86
2023/01/10 10:09:15;;;;;;;1.90;0.65;;;;;;;7.93;100.00;101610.25;10440870;28;20140;-85
2023/01/10 10:14:44;;;;;;;0.25;0.10;;;;;;;8.19;100.00;101602.91;10429272;28;20511;-86
2023/01/10 10:20:08;;;;;;;0.30;0.30;;;;;;;7.92;100.00;101604.25;10433185;28;20080;-87
2023/01/10 10:25:19;;;;;;;0.10;0.10;;;;;;;8.05;100.00;101602.25;10418038;28;20072;-88
2023/01/10 10:30:36;;;;;;;2.05;0.80;;;;;;;7.70;100.00;101589.50;10417745;28;20079;-87
2023/01/10 10:35:42;;;;;;;0.10;0.10;;;;;;;7.89;100.00;101582.69;10412100;28;20588;-87
2023/01/10 10:40:45;;;;;;;0.22;0.22;;;;;;;8.08;100.00;101574.16;10417391;28;20047;-87
2023/01/10 10:46:01;;;;;;;0.40;0.40;;;;;;;7.66;100.00;101574.78;10400271;28;20063;-86
2023/01/10 10:51:14;;;;;;;18.90;0.40;;;;;;;7.84;100.00;101582.47;10420155;28;20519;-79
2023/01/10 10:56:21;;;;;;;0.20;0.20;;;;;;;7.87;100.00;101580.03;10427644;28;20042;-79
2023/01/10 11:01:23;;;;;;;0.10;0.10;;;;;;;7.84;100.00;101573.88;10404151;28;20041;-79
2023/01/10 11:06:29;;;;;;;6.45;1.70;;;;;;;8.05;100.00;101568.91;10413706;28;20045;-80
2023/01/10 11:11:49;;;;;;;0.47;0.47;;;;;;;7.96;100.00;101574.47;10396654;28;20416;-80
2023/01/10 11:16:50;;;;;;;0.30;0.30;;;;;;;7.75;100.00;101575.19;10410272;28;20559;-79
2023/01/10 11:22:05;;;;;;;0.15;0.15;;;;;;;7.76;100.00;101570.97;10397238;28;20072;-79
2023/01/10 11:27:16;;;;;;;0.60;0.35;;;;;;;7.80;100.00;101567.72;10412439;28;20071;-79
2023/01/10 11:32:30;;;;;;;1.27;0.38;;;;;;;7.94;100.00;101556.44;10415064;28;20175;-80
2023/01/10 11:37:34;;;;;;;1.40;0.25;;;;;;;7.97;100.00;101549.69;10422245;28;20542;-80
2023/01/10 11:42:36;;;;;;;0.20;0.20;;;;;;;8.01;100.00;101559.28;10396167;28;20497;-81
2023/01/10 11:47:42;;;;;;;0.30;0.20;;;;;;;7.72;100.00;101548.50;10412424;28;20053;-81
2023/01/10 11:52:47;;;;;;;0.52;0.30;;;;;;;7.89;100.00;101557.91;10435139;28;20110;-80
2023/01/10 11:58:09;;;;;;;0.40;0.40;;;;;;;7.92;100.00;101542.66;10420995;28;20041;-79
2023/01/10 12:03:38;;;;;;;1.40;0.70;;;;;;;7.90;100.00;101541.72;10391092;28;20050;-80
2023/01/10 12:08:43;;;;;;;0.95;0.32;;;;;;;8.04;100.00;101541.47;10433448;28;20061;-80
2023/01/10 12:13:48;;;;;;;0.90;0.80;;;;;;;8.02;100.00;101540.50;10415483;28;20050;-80
2023/01/10 12:19:02;;;;;;;0.13;0.13;;;;;;;8.33;100.00;101523.94;10387993;28;20128;-79
2023/01/10 12:24:21;;;;;;;0.38;0.35;;;;;;;8.28;100.00;101521.16;10409398;28;20050;-80
2023/01/10 12:29:26;;;;;;;4.82;0.30;;;;;;;8.16;100.00;101529.19;10410776;28;20053;-79
2023/01/10 12:34:45;;;;;;;0.22;0.17;;;;;;;8.24;100.00;101514.16;10404870;28;20393;-79
2023/01/10 12:40:37;;;;;;;0.30;0.10;;;;;;;8.16;100.00;101500.97;10408313;28;20085;-79
2023/01/10 12:45:52;;;;;;;0.00;0.00;;;;;;;8.18;100.00;101495.91;10385700;28;20045;-79
2023/01/10 12:51:00;;;;;;;1.65;0.40;;;;;;;8.33;100.00;101499.19;10434796;28;20041;-78
2023/01/10 12:56:06;;;;;;;0.05;0.03;;;;;;;8.20;100.00;101487.47;10410356;28;20041;-79
2023/01/10 13:01:13;;;;;;;0.20;0.00;;;;;;;8.35;100.00;101476.13;10410238;28;20055;-79
2023/01/10 13:06:25;;;;;;;0.40;0.35;;;;;;;8.43;100.00;101474.78;10401069;28;20037;-78
2023/01/10 13:11:31;;;;;;;0.30;0.30;;;;;;;8.11;100.00;101458.81;10414644;28;20083;-79
2023/01/10 13:16:54;;;;;;;1.05;0.98;;;;;;;8.39;100.00;101460.03;10409159;28;20096;-79
2023/01/10 13:22:19;;;;;;;0.00;0.00;;;;;;;8.36;100.00;101459.91;10426717;28;20049;-78
2023/01/10 13:27:24;;;;;;;1.23;0.65;;;;;;;8.17;100.00;101456.53;10427098;28;20107;-78
2023/01/10 13:32:29;;;;;;;0.93;0.52;;;;;;;8.53;100.00;101452.97;10417548;28;20049;-79
2023/01/10 13:37:36;;;;;;;3.15;0.25;;;;;;;8.52;100.00;101451.22;10418640;28;20141;-83
2023/01/10 13:48:02;;;;;;;4.68;0.63;;;;;;;8.61;100.00;101431.06;10420901;28;20050;-83
2023/01/10 13:53:11;;;;;;;1.20;0.38;;;;;;;8.64;100.00;101417.47;10418605;28;20053;-85
2023/01/10 13:58:15;;;;;;;0.00;0.00;;;;;;;8.82;100.00;101402.84;10408059;28;20040;-84
2023/01/10 14:03:52;;;;;;;0.10;0.10;;;;;;;8.47;100.00;101398.78;10417359;28;20045;-83
2023/01/10 14:08:57;;;;;;;0.55;0.55;;;;;;;8.59;100.00;101383.03;10409585;28;20081;-82
2023/01/10 14:14:03;;;;;;;0.38;0.38;;;;;;;8.53;100.00;101388.78;10416389;28;20069;-83
2023/01/10 14:19:22;;;;;;;0.10;0.10;;;;;;;8.55;100.00;101372.59;10414748;28;20057;-84
2023/01/10 14:24:28;;;;;;;0.00;0.00;;;;;;;8.66;100.00;101370.47;10413234;28;20052;-85
2023/01/10 14:29:32;;;;;;;0.35;0.32;;;;;;;8.55;100.00;101367.47;10404443;28;20536;-85
2023/01/10 14:34:35;;;;;;;0.17;0.17;;;;;;;8.62;100.00;101378.00;10414782;28;20038;-85
2023/01/10 14:39:41;;;;;;;0.00;0.00;;;;;;;8.62;100.00;101367.72;10451193;28;20400;-82
2023/01/10 14:44:47;;;;;;;0.15;0.08;;;;;;;8.71;100.00;101361.25;10408088;28;20136;-83
2023/01/10 14:49:52;;;;;;;0.60;0.25;;;;;;;8.82;100.00;101351.44;10395839;28;20049;-84
2023/01/10 14:55:03;;;;;;;2.30;1.27;;;;;;;8.81;100.00;101349.69;10386906;28;20065;-84
2023/01/10 15:00:14;;;;;;;1.98;1.00;;;;;;;8.91;100.00;101350.94;10407199;28;20042;-81
2023/01/10 15:05:20;;;;;;;2.15;1.13;;;;;;;8.99;100.00;101343.50;10400575;28;20087;-83
2023/01/10 15:10:25;;;;;;;0.10;0.10;;;;;;;9.07;100.00;101331.84;10400626;28;20084;-84
2023/01/10 15:15:33;;;;;;;0.93;0.38;;;;;;;8.97;100.00;101324.59;10405546;28;20041;-84
2023/01/10 15:20:35;;;;;;;0.40;0.40;;;;;;;8.93;100.00;101317.56;10428351;28;20065;-84
2023/01/10 15:25:38;;;;;;;3.88;2.35;;;;;;;8.88;100.00;101304.53;10415598;28;20046;-85
2023/01/10 15:30:41;;;;;;;1.17;0.25;;;;;;;8.87;100.00;101288.25;10398829;28;20053;-84
2023/01/10 15:35:43;;;;;;;23.77;0.75;;;;;;;8.96;100.00;101286.88;10399298;28;20092;-84
2023/01/10 15:40:50;;;;;;;0.08;0.05;;;;;;;8.80;100.00;101276.00;10395317;28;20091;-82
2023/01/10 15:45:54;;;;;;;0.38;0.38;;;;;;;8.81;100.00;101252.06;10408824;28;20037;-83
2023/01/10 15:51:24;;;;;;;1.50;0.47;;;;;;;8.65;100.00;101237.72;10395373;28;20505;-83
2023/01/10 15:56:39;;;;;;;12.43;0.55;;;;;;;8.32;100.00;101208.97;10403342;28;20095;-84
2023/01/10 16:01:41;;;;;;;1.77;0.90;;;;;;;8.33;100.00;101185.97;10400521;28;20045;-83
2023/01/10 16:06:43;;;;;;;0.32;0.20;;;;;;;8.39;100.00;101164.75;10401939;28;20033;-83
2023/01/10 16:17:47;;;;;;;0.30;0.20;;;;;;;7.87;100.00;101133.66;10408390;28;20144;-82
2023/01/10 16:22:52;;;;;;;0.32;0.32;;;;;;;8.08;100.00;101133.66;10393438;28;20060;-84
2023/01/10 16:27:55;;;;;;;0.10;0.10;;;;;;;8.15;100.00;101133.88;10428827;28;20064;-82
2023/01/10 16:32:59;;;;;;;1.48;0.77;;;;;;;8.04;100.00;101120.63;10413254;28;20101;-84
2023/01/10 16:38:02;;;;;;;0.00;0.00;;;;;;;7.97;100.00;101098.97;10402048;28;20096;-83
2023/01/10 16:43:24;;;;;;;0.38;0.20;;;;;;;7.79;100.00;101083.72;10424910;28;20049;-82
2023/01/10 16:48:31;;;;;;;2.13;0.75;;;;;;;7.90;100.00;101082.47;10413118;28;20042;-84
2023/01/10 16:53:32;;;;;;;0.10;0.10;;;;;;;7.77;100.00;101072.56;10411550;28;20045;-83
2023/01/10 16:58:34;;;;;;;0.00;0.00;;;;;;;7.66;100.00;101049.03;10416090;28;20079;-84
2023/01/10 17:03:38;;;;;;;0.13;0.13;;;;;;;7.70;100.00;101050.03;10414140;28;20038;-83
2023/01/10 17:08:40;;;;;;;0.00;0.00;;;;;;;7.66;100.00;101041.34;10409130;28;20053;-82
2023/01/10 17:13:44;;;;;;;2.05;0.38;;;;;;;7.67;100.00;101031.94;10407616;28;20053;-82
2023/01/10 17:18:46;;;;;;;0.10;0.10;;;;;;;7.67;100.00;101030.25;10416929;28;20061;-83
2023/01/10 17:23:49;;;;;;;0.00;0.00;;;;;;;7.57;100.00;101010.22;10409918;28;20189;-83
2023/01/10 17:28:54;;;;;;;0.05;0.05;;;;;;;7.72;100.00;101015.94;10416634;28;20041;-82
2023/01/10 17:33:56;;;;;;;0.13;0.13;;;;;;;7.48;100.00;101013.28;10418896;28;20090;-85
2023/01/10 17:38:58;;;;;;;0.00;0.00;;;;;;;7.43;100.00;100992.59;10416817;28;20045;-82
2023/01/10 17:44:02;;;;;;;0.10;0.10;;;;;;;7.58;100.00;100987.19;10408474;28;20085;-83
2023/01/10 17:49:19;;;;;;;0.63;0.55;;;;;;;7.41;100.00;100981.38;10426312;28;20137;-83
2023/01/10 17:54:21;;;;;;;0.08;0.05;;;;;;;7.48;100.00;100967.13;10419412;28;20046;-84
2023/01/10 17:59:22;;;;;;;0.32;0.28;;;;;;;7.35;100.00;100964.88;10428114;28;20520;-88
2023/01/10 18:04:24;;;;;;;0.00;0.00;;;;;;;7.34;100.00;100952.88;10415951;28;20042;-88
2023/01/10 18:09:25;;;;;;;0.43;0.43;;;;;;;7.14;100.00;100929.91;10454906;28;20060;-87
2023/01/10 18:14:36;;;;;;;4.20;0.70;;;;;;;7.61;100.00;100914.63;10419145;28;20088;-88
2023/01/10 18:19:38;;;;;;;0.10;0.10;;;;;;;7.19;100.00;100933.50;10419143;28;20045;-88
2023/01/10 18:24:39;;;;;;;0.10;0.05;;;;;;;7.62;100.00;100912.16;10416427;28;20608;-86
2023/01/10 18:29:43;;;;;;;0.00;0.00;;;;;;;7.28;100.00;100880.06;10421185;28;20073;-87
2023/01/10 18:34:51;;;;;;;0.30;0.30;;;;;;;7.49;100.00;100862.91;10409318;28;20550;-89
2023/01/10 18:39:53;;;;;;;0.35;0.35;;;;;;;7.40;100.00;100879.66;10424872;28;20049;-86
2023/01/10 18:44:55;;;;;;;0.28;0.28;;;;;;;7.35;100.00;100880.28;10419708;28;20034;-87
2023/01/10 18:49:57;;;;;;;0.15;0.08;;;;;;;7.58;100.00;100871.81;10411950;28;20112;-87
2023/01/10 18:54:58;;;;;;;0.10;0.10;;;;;;;8.55;100.00;100864.13;10411770;28;20064;-86
2023/01/10 19:00:05;;;;;;;0.73;0.57;;;;;;;8.27;100.00;100875.09;10420731;28;20060;-85
2023/01/10 19:05:08;;;;;;;0.05;0.05;;;;;;;8.14;100.00;100881.53;10416683;28;20467;-86
2023/01/10 19:10:10;;;;;;;0.13;0.13;;;;;;;8.47;100.00;100878.41;10428167;28;20412;-87
2023/01/10 19:15:11;;;;;;;0.00;0.00;;;;;;;8.37;100.00;100873.75;10417078;28;20049;-87
2023/01/10 19:20:13;;;;;;;0.05;0.05;;;;;;;7.91;100.00;100881.56;10415729;28;20435;-86
2023/01/10 19:25:15;;;;;;;0.32;0.32;;;;;;;8.19;100.00;100859.47;10415600;28;20050;-86
2023/01/10 19:30:16;;;;;;;0.00;0.00;;;;;;;8.04;100.00;100869.19;10399498;28;20511;-87
2023/01/10 19:35:18;;;;;;;0.60;0.43;;;;;;;8.31;100.00;100847.84;10404646;28;20061;-86
2023/01/10 19:40:20;;;;;;;0.15;0.15;;;;;;;8.38;100.00;100845.56;10417783;28;20196;-86
2023/01/10 19:45:21;;;;;;;0.03;0.03;;;;;;;8.31;100.00;100846.19;10446854;28;20056;-87
2023/01/10 19:50:23;;;;;;;0.05;0.03;;;;;;;8.02;100.00;100837.44;10424883;28;20049;-87
2023/01/10 19:55:27;;;;;;;0.00;0.00;;;;;;;8.45;100.00;100820.94;10416375;28;20140;-87
2023/01/10 20:00:28;;;;;;;0.03;0.03;;;;;;;8.64;100.00;100842.16;10416278;28;20051;-86
2023/01/10 20:05:33;;;;;;;0.20;0.20;;;;;;;8.31;100.00;100833.34;10414774;28;20088;-87
2023/01/10 20:10:34;;;;;;;6.20;0.13;;;;;;;8.28;100.00;100814.41;10414852;28;20454;-87
2023/01/10 20:15:36;;;;;;;0.73;0.73;;;;;;;8.52;100.00;100817.81;10416989;28;20052;-89
2023/01/10 20:20:38;;;;;;;0.08;0.08;;;;;;;8.48;100.00;100815.09;10399305;28;20052;-87
2023/01/10 20:25:42;;;;;;;0.47;0.32;;;;;;;8.65;100.00;100807.94;10414776;28;20131;-87
2023/01/10 20:30:45;;;;;;;0.57;0.40;;;;;;;8.77;100.00;100802.31;10428374;28;20045;-88
2023/01/10 20:36:02;;;;;;;0.22;0.17;;;;;;;8.53;100.00;100799.00;10430050;28;20485;-87
2023/01/10 20:41:06;;;;;;;0.68;0.30;;;;;;;8.80;100.00;100789.56;10415437;28;20254;-87
2023/01/10 20:46:16;;;;;;;0.30;0.10;;;;;;;9.19;100.00;100777.06;10421555;28;20088;-87
2023/01/10 20:51:21;;;;;;;0.20;0.20;;;;;;;9.13;100.00;100791.44;10411833;28;20053;-79
2023/01/10 20:56:25;;;;;;;0.30;0.30;;;;;;;9.00;100.00;100783.38;10411983;28;20053;-78
2023/01/10 21:01:28;;;;;;;0.77;0.38;;;;;;;8.80;100.00;100782.75;10415468;28;20053;-77
2023/01/10 21:06:35;;;;;;;0.10;0.10;;;;;;;8.78;100.00;100756.13;10433238;28;20084;-77
2023/01/10 21:11:37;;;;;;;0.50;0.43;;;;;;;8.80;100.00;100761.31;10411544;28;20065;-79
2023/01/10 21:16:59;;;;;;;0.13;0.03;;;;;;;9.13;100.00;100753.75;10408310;28;20037;-78
2023/01/10 21:22:01;;;;;;;0.10;0.10;;;;;;;9.21;100.00;100752.25;10396050;28;20061;-78
2023/01/10 21:27:02;;;;;;;0.10;0.10;;;;;;;9.13;100.00;100738.31;10417376;28;20056;-78
2023/01/10 21:32:13;;;;;;;0.00;0.00;;;;;;;9.04;100.00;100727.78;10414556;28;20477;-79
2023/01/10 21:37:16;;;;;;;0.30;0.20;;;;;;;9.20;100.00;100711.09;10415529;28;20081;-78
2023/01/10 21:42:36;;;;;;;0.10;0.10;;;;;;;9.01;100.00;100722.53;10401104;28;20107;-79
2023/01/10 21:47:39;;;;;;;0.00;0.00;;;;;;;9.37;100.00;100714.13;10416905;28;20493;-77
2023/01/10 21:52:41;;;;;;;0.00;0.00;;;;;;;9.43;100.00;100693.72;10404396;28;20119;-78
2023/01/10 21:57:42;;;;;;;0.80;0.20;;;;;;;9.12;100.00;100692.03;10425828;28;20441;-79
2023/01/10 22:02:46;;;;;;;0.10;0.10;;;;;;;9.29;100.00;100701.09;10420192;28;20049;-79
2023/01/10 22:13:59;;;;;;;0.20;0.10;;;;;;;9.83;100.00;100688.75;10455695;28;20041;-78
2023/01/10 22:19:01;;;;;;;0.17;0.10;;;;;;;9.71;100.00;100694.50;10420230;28;20072;-79
2023/01/10 22:24:03;;;;;;;0.00;0.00;;;;;;;9.77;100.00;100684.34;10418439;28;20076;-79
2023/01/10 22:29:04;;;;;;;0.40;0.10;;;;;;;9.47;100.00;100689.53;10408360;28;20485;-78
2023/01/10 22:34:06;;;;;;;0.20;0.20;;;;;;;9.89;100.00;100685.47;10403249;28;20056;-79
2023/01/10 22:39:08;;;;;;;0.00;0.00;;;;;;;10.16;100.00;100688.72;10412664;28;20037;-78
2023/01/10 22:44:18;;;;;;;0.10;0.10;;;;;;;9.97;100.00;100677.13;10452470;28;20052;-79
2023/01/10 22:49:21;;;;;;;0.05;0.05;;;;;;;10.32;100.00;100683.94;10418918;28;20045;-79
2023/01/10 22:54:22;;;;;;;0.05;0.05;;;;;;;10.21;100.00;100664.81;10413076;28;20045;-86
2023/01/10 22:59:24;;;;;;;0.00;0.00;;;;;;;10.11;100.00;100659.44;10434861;28;20497;-87
2023/01/10 23:04:43;;;;;;;1.65;1.17;;;;;;;10.41;100.00;100643.00;10408354;28;20037;-79
2023/01/10 23:09:45;;;;;;;0.10;0.10;;;;;;;10.11;100.00;100638.84;10432162;28;20091;-78
2023/01/10 23:14:46;;;;;;;0.28;0.25;;;;;;;10.19;100.00;100635.56;10447678;28;20045;-79
2023/01/10 23:19:48;;;;;;;2.22;0.45;;;;;;;10.34;100.00;100622.19;10417511;28;20053;-80
2023/01/10 23:24:50;;;;;;;0.00;0.00;;;;;;;10.50;100.00;100615.69;10417083;28;20056;-79
2023/01/10 23:29:51;;;;;;;0.00;0.00;;;;;;;10.71;100.00;100613.56;10417279;28;20080;-79
2023/01/10 23:34:53;;;;;;;0.00;0.00;;;;;;;11.03;100.00;100603.03;10411506;28;20638;-79
2023/01/10 23:39:54;;;;;;;0.00;0.00;;;;;;;11.02;100.00;100593.56;10407898;28;20118;-79
2023/01/10 23:44:56;;;;;;;1.02;0.35;;;;;;;10.77;100.00;100589.66;10418761;28;20045;-78
2023/01/10 23:49:57;;;;;;;0.10;0.08;;;;;;;10.99;100.00;100584.91;10416522;28;20052;-79
2023/01/10 23:54:59;;;;;;;0.00;0.00;;;;;;;11.06;100.00;100571.28;10457102;28;20045;-79
